sensor_id;sensor_type;location;lat;lon;timestamp;P1;durP1;ratioP1;P2;durP2;ratioP2
37647;SDS011;23490;53.656;10.076;2022-12-18T00:01:23;21.63;;;10.88;;
37647;SDS011;23490;53.656;10.076;2022-12-18T00:03:51;26.27;;;12.65;;
37647;SDS011;23490;53.656;10.076;2022-12-18T00:06:18;24.90;;;12.55;;
37647;SDS011;23490;53.656;10.076;2022-12-18T00:08:45;27.40;;;11.90;;
37647;SDS011;23490;53.656;10.076;2022-12-18T00:11:12;25.52;;;11.27;;
37647;SDS011;23490;53.656;10.076;2022-12-18T00:13:39;26.45;;;12.32;;
37647;SDS011;23490;53.656;10.076;2022-12-18T00:16:06;21.90;;;11.52;;
37647;SDS011;23490;53.656;10.076;2022-12-18T00:18:33;27.23;;;11.32;;
37647;SDS011;23490;53.656;10.076;2022-12-18T00:21:03;23.20;;;11.93;;
37647;SDS011;23490;53.656;10.076;2022-12-18T00:23:30;24.38;;;12.85;;
37647;SDS011;23490;53.656;10.076;2022-12-18T00:26:02;27.15;;;11.73;;
37647;SDS011;23490;53.656;10.076;2022-12-18T00:28:31;24.30;;;11.27;;
37647;SDS011;23490;53.656;10.076;2022-12-18T00:31:03;22.77;;;11.52;;
37647;SDS011;23490;53.656;10.076;2022-12-18T00:33:30;24.60;;;11.93;;
37647;SDS011;23490;53.656;10.076;2022-12-18T00:36:03;23.90;;;11.75;;
37647;SDS011;23490;53.656;10.076;2022-12-18T00:38:29;25.55;;;11.82;;
37647;SDS011;23490;53.656;10.076;2022-12-18T00:40:55;21.73;;;10.13;;
37647;SDS011;23490;53.656;10.076;2022-12-18T00:43:20;23.80;;;11.27;;
37647;SDS011;23490;53.656;10.076;2022-12-18T00:45:46;21.98;;;11.50;;
37647;SDS011;23490;53.656;10.076;2022-12-18T00:48:11;21.55;;;11.50;;
37647;SDS011;23490;53.656;10.076;2022-12-18T00:50:37;20.60;;;10.60;;
37647;SDS011;23490;53.656;10.076;2022-12-18T00:53:03;24.45;;;10.95;;
37647;SDS011;23490;53.656;10.076;2022-12-18T00:55:28;27.65;;;12.10;;
37647;SDS011;23490;53.656;10.076;2022-12-18T00:57:54;19.77;;;9.93;;
37647;SDS011;23490;53.656;10.076;2022-12-18T01:00:19;24.42;;;10.93;;
37647;SDS011;23490;53.656;10.076;2022-12-18T01:02:45;24.45;;;11.07;;
37647;SDS011;23490;53.656;10.076;2022-12-18T01:05:12;23.10;;;10.73;;
37647;SDS011;23490;53.656;10.076;2022-12-18T01:07:38;24.35;;;10.65;;
37647;SDS011;23490;53.656;10.076;2022-12-18T01:10:03;24.00;;;10.20;;
37647;SDS011;23490;53.656;10.076;2022-12-18T01:12:30;24.08;;;10.38;;
37647;SDS011;23490;53.656;10.076;2022-12-18T01:14:55;26.08;;;11.00;;
37647;SDS011;23490;53.656;10.076;2022-12-18T01:17:21;24.95;;;10.70;;
37647;SDS011;23490;53.656;10.076;2022-12-18T01:19:46;23.45;;;10.82;;
37647;SDS011;23490;53.656;10.076;2022-12-18T01:22:12;20.73;;;10.32;;
37647;SDS011;23490;53.656;10.076;2022-12-18T01:24:37;23.20;;;11.05;;
37647;SDS011;23490;53.656;10.076;2022-12-18T01:27:03;26.83;;;11.20;;
37647;SDS011;23490;53.656;10.076;2022-12-18T01:29:28;22.42;;;10.75;;
37647;SDS011;23490;53.656;10.076;2022-12-18T01:31:54;25.13;;;11.05;;
37647;SDS011;23490;53.656;10.076;2022-12-18T01:34:21;24.92;;;9.85;;
37647;SDS011;23490;53.656;10.076;2022-12-18T01:36:46;21.88;;;10.00;;
37647;SDS011;23490;53.656;10.076;2022-12-18T01:39:12;20.27;;;10.07;;
37647;SDS011;23490;53.656;10.076;2022-12-18T01:41:39;21.33;;;9.73;;
37647;SDS011;23490;53.656;10.076;2022-12-18T01:47:23;20.05;;;9.70;;
37647;SDS011;23490;53.656;10.076;2022-12-18T01:49:53;20.05;;;9.73;;
37647;SDS011;23490;53.656;10.076;2022-12-18T01:52:19;19.50;;;9.43;;
37647;SDS011;23490;53.656;10.076;2022-12-18T01:54:45;20.15;;;10.43;;
37647;SDS011;23490;53.656;10.076;2022-12-18T01:57:12;21.70;;;10.10;;
37647;SDS011;23490;53.656;10.076;2022-12-18T01:59:37;21.65;;;9.73;;
37647;SDS011;23490;53.656;10.076;2022-12-18T02:02:06;22.10;;;9.95;;
37647;SDS011;23490;53.656;10.076;2022-12-18T02:04:32;18.35;;;8.88;;
37647;SDS011;23490;53.656;10.076;2022-12-18T02:07:04;21.10;;;9.43;;
37647;SDS011;23490;53.656;10.076;2022-12-18T02:09:46;20.95;;;9.45;;
37647;SDS011;23490;53.656;10.076;2022-12-18T02:14:52;17.38;;;9.13;;
37647;SDS011;23490;53.656;10.076;2022-12-18T02:17:37;22.80;;;9.32;;
37647;SDS011;23490;53.656;10.076;2022-12-18T02:28:45;21.92;;;9.35;;
37647;SDS011;23490;53.656;10.076;2022-12-18T02:31:31;19.67;;;8.23;;
37647;SDS011;23490;53.656;10.076;2022-12-18T02:34:03;22.58;;;8.98;;
37647;SDS011;23490;53.656;10.076;2022-12-18T02:36:30;19.20;;;8.93;;
37647;SDS011;23490;53.656;10.076;2022-12-18T02:38:58;21.02;;;9.43;;
37647;SDS011;23490;53.656;10.076;2022-12-18T02:41:26;21.50;;;9.32;;
37647;SDS011;23490;53.656;10.076;2022-12-18T02:43:56;17.58;;;8.68;;
37647;SDS011;23490;53.656;10.076;2022-12-18T02:46:31;18.85;;;9.05;;
37647;SDS011;23490;53.656;10.076;2022-12-18T02:49:12;17.27;;;8.35;;
37647;SDS011;23490;53.656;10.076;2022-12-18T02:51:53;19.20;;;8.65;;
37647;SDS011;23490;53.656;10.076;2022-12-18T02:57:21;19.05;;;7.70;;
37647;SDS011;23490;53.656;10.076;2022-12-18T03:05:30;19.73;;;9.40;;
37647;SDS011;23490;53.656;10.076;2022-12-18T03:08:22;18.52;;;8.45;;
37647;SDS011;23490;53.656;10.076;2022-12-18T03:10:55;16.23;;;7.88;;
37647;SDS011;23490;53.656;10.076;2022-12-18T03:13:26;19.83;;;8.40;;
37647;SDS011;23490;53.656;10.076;2022-12-18T03:16:00;18.50;;;7.95;;
37647;SDS011;23490;53.656;10.076;2022-12-18T03:18:49;16.15;;;7.43;;
37647;SDS011;23490;53.656;10.076;2022-12-18T03:21:22;20.02;;;8.50;;
37647;SDS011;23490;53.656;10.076;2022-12-18T03:23:53;16.63;;;8.25;;
37647;SDS011;23490;53.656;10.076;2022-12-18T03:26:21;14.48;;;7.22;;
37647;SDS011;23490;53.656;10.076;2022-12-18T03:28:51;17.75;;;8.75;;
37647;SDS011;23490;53.656;10.076;2022-12-18T03:31:21;17.77;;;7.55;;
37647;SDS011;23490;53.656;10.076;2022-12-18T03:33:55;19.35;;;8.35;;
37647;SDS011;23490;53.656;10.076;2022-12-18T03:36:23;17.67;;;8.05;;
37647;SDS011;23490;53.656;10.076;2022-12-18T03:38:49;17.25;;;8.20;;
37647;SDS011;23490;53.656;10.076;2022-12-18T03:41:31;17.08;;;8.07;;
37647;SDS011;23490;53.656;10.076;2022-12-18T03:44:02;16.10;;;7.15;;
37647;SDS011;23490;53.656;10.076;2022-12-18T03:49:33;17.80;;;7.25;;
37647;SDS011;23490;53.656;10.076;2022-12-18T03:52:11;17.88;;;7.45;;
37647;SDS011;23490;53.656;10.076;2022-12-18T03:54:43;12.32;;;6.65;;
37647;SDS011;23490;53.656;10.076;2022-12-18T03:57:15;15.98;;;7.75;;
37647;SDS011;23490;53.656;10.076;2022-12-18T03:59:43;16.15;;;7.63;;
37647;SDS011;23490;53.656;10.076;2022-12-18T04:02:12;18.45;;;7.70;;
37647;SDS011;23490;53.656;10.076;2022-12-18T04:04:40;17.42;;;8.82;;
37647;SDS011;23490;53.656;10.076;2022-12-18T04:07:07;16.88;;;7.95;;
37647;SDS011;23490;53.656;10.076;2022-12-18T04:09:34;14.05;;;7.50;;
37647;SDS011;23490;53.656;10.076;2022-12-18T04:12:01;15.77;;;7.15;;
37647;SDS011;23490;53.656;10.076;2022-12-18T04:14:26;15.65;;;7.78;;
37647;SDS011;23490;53.656;10.076;2022-12-18T04:16:52;18.10;;;8.07;;
37647;SDS011;23490;53.656;10.076;2022-12-18T04:19:17;14.65;;;6.43;;
37647;SDS011;23490;53.656;10.076;2022-12-18T04:21:42;17.52;;;7.53;;
37647;SDS011;23490;53.656;10.076;2022-12-18T04:24:08;15.77;;;7.18;;
37647;SDS011;23490;53.656;10.076;2022-12-18T04:26:33;23.80;;;8.48;;
37647;SDS011;23490;53.656;10.076;2022-12-18T04:28:59;14.93;;;7.20;;
37647;SDS011;23490;53.656;10.076;2022-12-18T04:31:24;12.88;;;6.43;;
37647;SDS011;23490;53.656;10.076;2022-12-18T04:33:49;14.15;;;7.43;;
37647;SDS011;23490;53.656;10.076;2022-12-18T04:36:15;17.70;;;7.70;;
37647;SDS011;23490;53.656;10.076;2022-12-18T04:38:40;17.02;;;8.07;;
37647;SDS011;23490;53.656;10.076;2022-12-18T04:41:05;14.35;;;7.18;;
37647;SDS011;23490;53.656;10.076;2022-12-18T04:43:31;15.15;;;7.00;;
37647;SDS011;23490;53.656;10.076;2022-12-18T04:46:01;15.73;;;7.35;;
37647;SDS011;23490;53.656;10.076;2022-12-18T04:48:35;17.17;;;7.55;;
37647;SDS011;23490;53.656;10.076;2022-12-18T04:51:01;16.55;;;7.88;;
37647;SDS011;23490;53.656;10.076;2022-12-18T04:53:26;16.27;;;7.90;;
37647;SDS011;23490;53.656;10.076;2022-12-18T04:56:02;17.05;;;6.90;;
37647;SDS011;23490;53.656;10.076;2022-12-18T04:58:45;15.95;;;7.40;;
37647;SDS011;23490;53.656;10.076;2022-12-18T05:01:11;18.48;;;7.65;;
37647;SDS011;23490;53.656;10.076;2022-12-18T05:03:38;15.30;;;7.63;;
37647;SDS011;23490;53.656;10.076;2022-12-18T05:06:05;16.33;;;7.60;;
37647;SDS011;23490;53.656;10.076;2022-12-18T05:08:31;20.00;;;7.68;;
37647;SDS011;23490;53.656;10.076;2022-12-18T05:11:10;15.60;;;6.80;;
37647;SDS011;23490;53.656;10.076;2022-12-18T05:13:39;16.65;;;7.55;;
37647;SDS011;23490;53.656;10.076;2022-12-18T05:16:04;17.35;;;7.93;;
37647;SDS011;23490;53.656;10.076;2022-12-18T05:18:30;15.95;;;7.82;;
37647;SDS011;23490;53.656;10.076;2022-12-18T05:20:56;17.88;;;8.05;;
37647;SDS011;23490;53.656;10.076;2022-12-18T05:23:22;18.70;;;8.23;;
37647;SDS011;23490;53.656;10.076;2022-12-18T05:25:58;19.27;;;8.30;;
37647;SDS011;23490;53.656;10.076;2022-12-18T05:28:29;16.83;;;6.93;;
37647;SDS011;23490;53.656;10.076;2022-12-18T05:30:56;19.00;;;8.10;;
37647;SDS011;23490;53.656;10.076;2022-12-18T05:33:23;18.38;;;8.07;;
37647;SDS011;23490;53.656;10.076;2022-12-18T05:35:54;17.25;;;8.07;;
37647;SDS011;23490;53.656;10.076;2022-12-18T05:38:25;16.38;;;8.07;;
37647;SDS011;23490;53.656;10.076;2022-12-18T05:40:52;16.77;;;8.23;;
37647;SDS011;23490;53.656;10.076;2022-12-18T05:43:17;17.27;;;7.78;;
37647;SDS011;23490;53.656;10.076;2022-12-18T05:45:44;16.40;;;7.80;;
37647;SDS011;23490;53.656;10.076;2022-12-18T05:48:12;15.30;;;7.68;;
37647;SDS011;23490;53.656;10.076;2022-12-18T05:50:38;19.80;;;7.43;;
37647;SDS011;23490;53.656;10.076;2022-12-18T05:53:06;18.05;;;8.50;;
37647;SDS011;23490;53.656;10.076;2022-12-18T05:55:35;21.77;;;8.63;;
37647;SDS011;23490;53.656;10.076;2022-12-18T05:58:02;20.33;;;8.23;;
37647;SDS011;23490;53.656;10.076;2022-12-18T06:00:29;21.38;;;8.65;;
37647;SDS011;23490;53.656;10.076;2022-12-18T06:02:55;18.70;;;8.32;;
37647;SDS011;23490;53.656;10.076;2022-12-18T06:05:20;15.75;;;7.60;;
37647;SDS011;23490;53.656;10.076;2022-12-18T06:07:46;20.23;;;8.85;;
37647;SDS011;23490;53.656;10.076;2022-12-18T06:10:11;18.80;;;8.52;;
37647;SDS011;23490;53.656;10.076;2022-12-18T06:12:36;17.90;;;8.27;;
37647;SDS011;23490;53.656;10.076;2022-12-18T06:15:02;17.27;;;8.75;;
37647;SDS011;23490;53.656;10.076;2022-12-18T06:17:28;16.48;;;8.55;;
37647;SDS011;23490;53.656;10.076;2022-12-18T06:19:54;17.48;;;8.77;;
37647;SDS011;23490;53.656;10.076;2022-12-18T06:22:20;15.77;;;8.05;;
37647;SDS011;23490;53.656;10.076;2022-12-18T06:24:45;18.00;;;8.10;;
37647;SDS011;23490;53.656;10.076;2022-12-18T06:27:10;17.75;;;7.75;;
37647;SDS011;23490;53.656;10.076;2022-12-18T06:29:36;21.77;;;9.82;;
37647;SDS011;23490;53.656;10.076;2022-12-18T06:32:01;22.92;;;8.82;;
37647;SDS011;23490;53.656;10.076;2022-12-18T06:34:26;21.25;;;8.95;;
37647;SDS011;23490;53.656;10.076;2022-12-18T06:36:52;20.05;;;8.60;;
37647;SDS011;23490;53.656;10.076;2022-12-18T06:39:17;16.20;;;8.02;;
37647;SDS011;23490;53.656;10.076;2022-12-18T06:41:42;18.67;;;8.52;;
37647;SDS011;23490;53.656;10.076;2022-12-18T06:44:08;20.77;;;8.80;;
37647;SDS011;23490;53.656;10.076;2022-12-18T06:46:33;19.83;;;8.82;;
37647;SDS011;23490;53.656;10.076;2022-12-18T06:48:58;19.42;;;8.68;;
37647;SDS011;23490;53.656;10.076;2022-12-18T06:51:24;22.27;;;10.05;;
37647;SDS011;23490;53.656;10.076;2022-12-18T06:53:49;21.58;;;9.95;;
37647;SDS011;23490;53.656;10.076;2022-12-18T06:56:15;18.60;;;8.60;;
37647;SDS011;23490;53.656;10.076;2022-12-18T06:58:40;17.45;;;7.95;;
37647;SDS011;23490;53.656;10.076;2022-12-18T07:01:07;18.55;;;8.43;;
37647;SDS011;23490;53.656;10.076;2022-12-18T07:03:35;23.45;;;9.95;;
37647;SDS011;23490;53.656;10.076;2022-12-18T07:06:01;22.20;;;9.77;;
37647;SDS011;23490;53.656;10.076;2022-12-18T07:08:26;21.23;;;8.82;;
37647;SDS011;23490;53.656;10.076;2022-12-18T07:10:54;18.67;;;8.63;;
37647;SDS011;23490;53.656;10.076;2022-12-18T07:13:19;19.90;;;9.25;;
37647;SDS011;23490;53.656;10.076;2022-12-18T07:15:44;20.15;;;8.77;;
37647;SDS011;23490;53.656;10.076;2022-12-18T07:18:10;21.38;;;8.60;;
37647;SDS011;23490;53.656;10.076;2022-12-18T07:20:36;20.42;;;9.23;;
37647;SDS011;23490;53.656;10.076;2022-12-18T07:23:04;18.73;;;8.75;;
37647;SDS011;23490;53.656;10.076;2022-12-18T07:25:33;22.10;;;8.77;;
37647;SDS011;23490;53.656;10.076;2022-12-18T07:27:59;20.13;;;10.27;;
37647;SDS011;23490;53.656;10.076;2022-12-18T07:30:25;19.83;;;8.98;;
37647;SDS011;23490;53.656;10.076;2022-12-18T07:32:50;18.55;;;9.60;;
37647;SDS011;23490;53.656;10.076;2022-12-18T07:35:15;19.45;;;8.25;;
37647;SDS011;23490;53.656;10.076;2022-12-18T07:37:41;23.42;;;10.23;;
37647;SDS011;23490;53.656;10.076;2022-12-18T07:40:07;21.33;;;9.63;;
37647;SDS011;23490;53.656;10.076;2022-12-18T07:42:33;19.80;;;8.60;;
37647;SDS011;23490;53.656;10.076;2022-12-18T07:44:59;20.25;;;9.10;;
37647;SDS011;23490;53.656;10.076;2022-12-18T07:47:25;17.27;;;8.57;;
37647;SDS011;23490;53.656;10.076;2022-12-18T07:49:51;20.73;;;10.60;;
37647;SDS011;23490;53.656;10.076;2022-12-18T07:52:16;23.70;;;8.85;;
37647;SDS011;23490;53.656;10.076;2022-12-18T07:54:42;19.48;;;8.68;;
37647;SDS011;23490;53.656;10.076;2022-12-18T07:57:07;21.80;;;9.35;;
37647;SDS011;23490;53.656;10.076;2022-12-18T07:59:34;18.08;;;8.52;;
37647;SDS011;23490;53.656;10.076;2022-12-18T08:01:59;20.95;;;8.90;;
37647;SDS011;23490;53.656;10.076;2022-12-18T08:04:25;20.98;;;9.35;;
37647;SDS011;23490;53.656;10.076;2022-12-18T08:06:50;20.10;;;9.15;;
37647;SDS011;23490;53.656;10.076;2022-12-18T08:09:16;20.77;;;10.27;;
37647;SDS011;23490;53.656;10.076;2022-12-18T08:11:41;20.17;;;8.70;;
37647;SDS011;23490;53.656;10.076;2022-12-18T08:14:06;21.35;;;9.27;;
37647;SDS011;23490;53.656;10.076;2022-12-18T08:16:32;16.08;;;8.05;;
37647;SDS011;23490;53.656;10.076;2022-12-18T08:18:57;20.38;;;9.60;;
37647;SDS011;23490;53.656;10.076;2022-12-18T08:21:24;21.20;;;8.82;;
37647;SDS011;23490;53.656;10.076;2022-12-18T08:23:51;21.13;;;9.35;;
37647;SDS011;23490;53.656;10.076;2022-12-18T08:26:18;20.23;;;9.80;;
37647;SDS011;23490;53.656;10.076;2022-12-18T08:28:44;21.77;;;9.57;;
37647;SDS011;23490;53.656;10.076;2022-12-18T08:31:10;20.17;;;8.93;;
37647;SDS011;23490;53.656;10.076;2022-12-18T08:33:36;18.00;;;8.82;;
37647;SDS011;23490;53.656;10.076;2022-12-18T08:36:03;20.45;;;8.60;;
37647;SDS011;23490;53.656;10.076;2022-12-18T08:38:29;18.80;;;8.48;;
37647;SDS011;23490;53.656;10.076;2022-12-18T08:41:02;25.55;;;9.80;;
37647;SDS011;23490;53.656;10.076;2022-12-18T08:43:29;20.05;;;8.02;;
37647;SDS011;23490;53.656;10.076;2022-12-18T08:46:16;20.75;;;9.48;;
37647;SDS011;23490;53.656;10.076;2022-12-18T08:48:46;19.67;;;8.57;;
37647;SDS011;23490;53.656;10.076;2022-12-18T08:51:12;17.95;;;8.75;;
37647;SDS011;23490;53.656;10.076;2022-12-18T08:53:37;19.38;;;8.00;;
37647;SDS011;23490;53.656;10.076;2022-12-18T08:56:03;18.38;;;8.98;;
37647;SDS011;23490;53.656;10.076;2022-12-18T08:58:29;17.02;;;8.45;;
37647;SDS011;23490;53.656;10.076;2022-12-18T09:01:06;16.75;;;7.90;;
37647;SDS011;23490;53.656;10.076;2022-12-18T09:03:34;16.67;;;8.07;;
37647;SDS011;23490;53.656;10.076;2022-12-18T09:06:00;18.73;;;8.20;;
37647;SDS011;23490;53.656;10.076;2022-12-18T09:08:25;22.95;;;8.75;;
37647;SDS011;23490;53.656;10.076;2022-12-18T09:10:51;19.05;;;8.93;;
37647;SDS011;23490;53.656;10.076;2022-12-18T09:13:17;17.63;;;9.43;;
37647;SDS011;23490;53.656;10.076;2022-12-18T09:15:43;19.00;;;8.35;;
37647;SDS011;23490;53.656;10.076;2022-12-18T09:18:10;21.50;;;9.95;;
37647;SDS011;23490;53.656;10.076;2022-12-18T09:20:36;19.90;;;9.68;;
37647;SDS011;23490;53.656;10.076;2022-12-18T09:23:02;21.65;;;9.35;;
37647;SDS011;23490;53.656;10.076;2022-12-18T09:25:28;21.42;;;8.35;;
37647;SDS011;23490;53.656;10.076;2022-12-18T09:30:24;16.20;;;7.70;;
37647;SDS011;23490;53.656;10.076;2022-12-18T09:32:49;19.25;;;8.60;;
37647;SDS011;23490;53.656;10.076;2022-12-18T09:35:14;18.45;;;7.65;;
37647;SDS011;23490;53.656;10.076;2022-12-18T09:37:40;17.90;;;8.95;;
37647;SDS011;23490;53.656;10.076;2022-12-18T09:40:09;17.73;;;8.15;;
37647;SDS011;23490;53.656;10.076;2022-12-18T09:42:44;18.35;;;7.93;;
37647;SDS011;23490;53.656;10.076;2022-12-18T09:45:14;19.55;;;8.32;;
37647;SDS011;23490;53.656;10.076;2022-12-18T09:47:40;19.13;;;8.25;;
37647;SDS011;23490;53.656;10.076;2022-12-18T09:50:16;15.90;;;7.90;;
37647;SDS011;23490;53.656;10.076;2022-12-18T09:52:53;16.10;;;7.53;;
37647;SDS011;23490;53.656;10.076;2022-12-18T09:55:32;16.55;;;7.50;;
37647;SDS011;23490;53.656;10.076;2022-12-18T10:01:14;18.63;;;8.50;;
37647;SDS011;23490;53.656;10.076;2022-12-18T10:03:43;18.60;;;8.30;;
37647;SDS011;23490;53.656;10.076;2022-12-18T10:06:11;16.10;;;8.93;;
37647;SDS011;23490;53.656;10.076;2022-12-18T10:08:43;17.33;;;8.20;;
37647;SDS011;23490;53.656;10.076;2022-12-18T10:14:23;17.65;;;8.07;;
37647;SDS011;23490;53.656;10.076;2022-12-18T10:22:43;17.67;;;7.40;;
37647;SDS011;23490;53.656;10.076;2022-12-18T10:28:18;16.42;;;7.15;;
37647;SDS011;23490;53.656;10.076;2022-12-18T10:30:45;22.60;;;8.05;;
37647;SDS011;23490;53.656;10.076;2022-12-18T10:33:18;15.00;;;7.70;;
37647;SDS011;23490;53.656;10.076;2022-12-18T10:35:45;14.88;;;7.07;;
37647;SDS011;23490;53.656;10.076;2022-12-18T10:40:55;14.70;;;6.57;;
37647;SDS011;23490;53.656;10.076;2022-12-18T10:43:26;16.95;;;7.72;;
37647;SDS011;23490;53.656;10.076;2022-12-18T10:45:59;14.93;;;7.63;;
37647;SDS011;23490;53.656;10.076;2022-12-18T10:48:28;15.60;;;7.10;;
37647;SDS011;23490;53.656;10.076;2022-12-18T10:50:55;12.63;;;6.70;;
37647;SDS011;23490;53.656;10.076;2022-12-18T10:53:26;12.90;;;6.82;;
37647;SDS011;23490;53.656;10.076;2022-12-18T10:55:54;15.50;;;7.72;;
37647;SDS011;23490;53.656;10.076;2022-12-18T10:58:26;14.85;;;7.60;;
37647;SDS011;23490;53.656;10.076;2022-12-18T11:06:21;13.57;;;6.55;;
37647;SDS011;23490;53.656;10.076;2022-12-18T11:09:02;15.60;;;7.70;;
37647;SDS011;23490;53.656;10.076;2022-12-18T11:11:30;16.85;;;6.88;;
37647;SDS011;23490;53.656;10.076;2022-12-18T11:13:58;13.73;;;7.40;;
37647;SDS011;23490;53.656;10.076;2022-12-18T11:16:25;16.15;;;7.43;;
37647;SDS011;23490;53.656;10.076;2022-12-18T11:18:52;13.07;;;6.28;;
37647;SDS011;23490;53.656;10.076;2022-12-18T11:21:18;12.77;;;6.18;;
37647;SDS011;23490;53.656;10.076;2022-12-18T11:23:50;16.35;;;6.45;;
37647;SDS011;23490;53.656;10.076;2022-12-18T11:26:17;12.70;;;6.40;;
37647;SDS011;23490;53.656;10.076;2022-12-18T11:28:44;13.55;;;7.07;;
37647;SDS011;23490;53.656;10.076;2022-12-18T11:33:42;13.25;;;6.35;;
37647;SDS011;23490;53.656;10.076;2022-12-18T11:36:13;15.13;;;7.05;;
37647;SDS011;23490;53.656;10.076;2022-12-18T11:38:39;13.10;;;6.72;;
37647;SDS011;23490;53.656;10.076;2022-12-18T11:44:11;14.77;;;6.78;;
37647;SDS011;23490;53.656;10.076;2022-12-18T11:46:43;14.13;;;6.60;;
37647;SDS011;23490;53.656;10.076;2022-12-18T11:49:19;14.20;;;6.38;;
37647;SDS011;23490;53.656;10.076;2022-12-18T11:52:00;16.83;;;6.85;;
37647;SDS011;23490;53.656;10.076;2022-12-18T11:54:29;13.70;;;6.70;;
37647;SDS011;23490;53.656;10.076;2022-12-18T11:56:56;13.20;;;6.85;;
37647;SDS011;23490;53.656;10.076;2022-12-18T12:02:31;14.05;;;6.45;;
37647;SDS011;23490;53.656;10.076;2022-12-18T12:05:18;13.63;;;6.25;;
37647;SDS011;23490;53.656;10.076;2022-12-18T12:07:52;17.70;;;7.88;;
37647;SDS011;23490;53.656;10.076;2022-12-18T12:13:19;16.77;;;7.63;;
37647;SDS011;23490;53.656;10.076;2022-12-18T12:21:17;12.75;;;6.30;;
37647;SDS011;23490;53.656;10.076;2022-12-18T12:33:10;17.90;;;7.80;;
37647;SDS011;23490;53.656;10.076;2022-12-18T12:35:44;20.17;;;9.98;;
37647;SDS011;23490;53.656;10.076;2022-12-18T12:38:16;25.95;;;10.77;;
37647;SDS011;23490;53.656;10.076;2022-12-18T12:41:09;17.60;;;8.38;;
37647;SDS011;23490;53.656;10.076;2022-12-18T12:43:57;13.95;;;6.97;;
37647;SDS011;23490;53.656;10.076;2022-12-18T12:46:26;41.20;;;18.23;;
37647;SDS011;23490;53.656;10.076;2022-12-18T12:49:04;23.75;;;11.18;;
37647;SDS011;23490;53.656;10.076;2022-12-18T12:51:39;16.15;;;7.80;;
37647;SDS011;23490;53.656;10.076;2022-12-18T12:54:11;15.82;;;7.47;;
37647;SDS011;23490;53.656;10.076;2022-12-18T12:56:51;16.42;;;7.70;;
37647;SDS011;23490;53.656;10.076;2022-12-18T12:59:39;16.73;;;7.90;;
37647;SDS011;23490;53.656;10.076;2022-12-18T13:05:01;17.75;;;7.65;;
37647;SDS011;23490;53.656;10.076;2022-12-18T13:13:01;16.70;;;7.70;;
37647;SDS011;23490;53.656;10.076;2022-12-18T13:20:34;16.10;;;7.78;;
37647;SDS011;23490;53.656;10.076;2022-12-18T13:23:01;20.33;;;8.30;;
37647;SDS011;23490;53.656;10.076;2022-12-18T13:26:34;20.05;;;8.82;;
37647;SDS011;23490;53.656;10.076;2022-12-18T13:31:58;16.92;;;8.07;;
37647;SDS011;23490;53.656;10.076;2022-12-18T13:34:19;17.25;;;8.30;;
37647;SDS011;23490;53.656;10.076;2022-12-18T13:36:54;18.15;;;8.02;;
37647;SDS011;23490;53.656;10.076;2022-12-18T13:39:41;18.30;;;8.13;;
37647;SDS011;23490;53.656;10.076;2022-12-18T13:44:33;20.77;;;8.98;;
37647;SDS011;23490;53.656;10.076;2022-12-18T13:47:04;19.10;;;8.73;;
37647;SDS011;23490;53.656;10.076;2022-12-18T13:49:43;19.48;;;7.80;;
37647;SDS011;23490;53.656;10.076;2022-12-18T13:52:16;18.30;;;8.43;;
37647;SDS011;23490;53.656;10.076;2022-12-18T13:54:45;20.63;;;8.38;;
37647;SDS011;23490;53.656;10.076;2022-12-18T13:57:35;19.25;;;8.50;;
37647;SDS011;23490;53.656;10.076;2022-12-18T14:00:25;19.20;;;7.88;;
37647;SDS011;23490;53.656;10.076;2022-12-18T14:02:53;19.58;;;8.07;;
37647;SDS011;23490;53.656;10.076;2022-12-18T14:07:55;20.55;;;9.00;;
37647;SDS011;23490;53.656;10.076;2022-12-18T14:10:26;25.10;;;10.02;;
37647;SDS011;23490;53.656;10.076;2022-12-18T14:12:52;22.10;;;9.02;;
37647;SDS011;23490;53.656;10.076;2022-12-18T14:15:34;22.25;;;8.50;;
37647;SDS011;23490;53.656;10.076;2022-12-18T14:18:02;23.88;;;9.77;;
37647;SDS011;23490;53.656;10.076;2022-12-18T14:20:40;23.02;;;8.38;;
37647;SDS011;23490;53.656;10.076;2022-12-18T14:26:01;22.45;;;9.23;;
37647;SDS011;23490;53.656;10.076;2022-12-18T14:28:28;23.08;;;9.25;;
37647;SDS011;23490;53.656;10.076;2022-12-18T14:30:54;22.77;;;8.93;;
37647;SDS011;23490;53.656;10.076;2022-12-18T14:33:22;26.33;;;10.57;;
37647;SDS011;23490;53.656;10.076;2022-12-18T14:38:22;23.70;;;8.45;;
37647;SDS011;23490;53.656;10.076;2022-12-18T14:40:53;23.55;;;10.02;;
37647;SDS011;23490;53.656;10.076;2022-12-18T14:43:21;23.90;;;9.65;;
37647;SDS011;23490;53.656;10.076;2022-12-18T14:45:46;23.88;;;9.32;;
37647;SDS011;23490;53.656;10.076;2022-12-18T14:48:20;26.42;;;10.85;;
37647;SDS011;23490;53.656;10.076;2022-12-18T14:51:33;24.20;;;10.13;;
37647;SDS011;23490;53.656;10.076;2022-12-18T14:53:46;27.35;;;10.98;;
37647;SDS011;23490;53.656;10.076;2022-12-18T14:56:20;23.75;;;9.07;;
37647;SDS011;23490;53.656;10.076;2022-12-18T14:58:51;28.33;;;10.80;;
37647;SDS011;23490;53.656;10.076;2022-12-18T15:01:23;22.38;;;9.70;;
37647;SDS011;23490;53.656;10.076;2022-12-18T15:03:49;29.02;;;11.52;;
37647;SDS011;23490;53.656;10.076;2022-12-18T15:06:17;29.67;;;11.65;;
37647;SDS011;23490;53.656;10.076;2022-12-18T15:08:49;28.83;;;10.55;;
37647;SDS011;23490;53.656;10.076;2022-12-18T15:11:28;29.15;;;11.38;;
37647;SDS011;23490;53.656;10.076;2022-12-18T15:17:03;23.00;;;10.48;;
37647;SDS011;23490;53.656;10.076;2022-12-18T15:19:42;27.00;;;10.85;;
37647;SDS011;23490;53.656;10.076;2022-12-18T15:22:17;26.65;;;10.88;;
37647;SDS011;23490;53.656;10.076;2022-12-18T15:24:45;28.95;;;12.60;;
37647;SDS011;23490;53.656;10.076;2022-12-18T15:32:32;31.33;;;11.90;;
37647;SDS011;23490;53.656;10.076;2022-12-18T15:35:03;30.95;;;12.43;;
37647;SDS011;23490;53.656;10.076;2022-12-18T15:37:41;43.67;;;18.30;;
37647;SDS011;23490;53.656;10.076;2022-12-18T15:40:18;36.45;;;14.05;;
37647;SDS011;23490;53.656;10.076;2022-12-18T15:42:45;29.52;;;11.43;;
37647;SDS011;23490;53.656;10.076;2022-12-18T15:45:30;37.60;;;14.40;;
37647;SDS011;23490;53.656;10.076;2022-12-18T15:47:56;33.85;;;13.10;;
37647;SDS011;23490;53.656;10.076;2022-12-18T15:50:21;34.55;;;12.75;;
37647;SDS011;23490;53.656;10.076;2022-12-18T15:52:48;33.30;;;12.77;;
37647;SDS011;23490;53.656;10.076;2022-12-18T15:55:17;32.03;;;12.30;;
37647;SDS011;23490;53.656;10.076;2022-12-18T15:58:03;34.20;;;12.95;;
37647;SDS011;23490;53.656;10.076;2022-12-18T16:00:29;32.40;;;13.43;;
37647;SDS011;23490;53.656;10.076;2022-12-18T16:02:54;33.08;;;12.80;;
37647;SDS011;23490;53.656;10.076;2022-12-18T16:05:20;34.03;;;12.00;;
37647;SDS011;23490;53.656;10.076;2022-12-18T16:07:46;34.22;;;11.55;;
37647;SDS011;23490;53.656;10.076;2022-12-18T16:10:12;37.55;;;15.63;;
37647;SDS011;23490;53.656;10.076;2022-12-18T16:12:38;32.97;;;13.52;;
37647;SDS011;23490;53.656;10.076;2022-12-18T16:15:04;35.65;;;12.95;;
37647;SDS011;23490;53.656;10.076;2022-12-18T16:17:30;39.28;;;14.48;;
37647;SDS011;23490;53.656;10.076;2022-12-18T16:19:56;31.15;;;12.10;;
37647;SDS011;23490;53.656;10.076;2022-12-18T16:22:23;40.03;;;15.70;;
37647;SDS011;23490;53.656;10.076;2022-12-18T16:24:50;37.08;;;16.55;;